Time;durP1;ratioP1;P1;durP2;ratioP2;P2;SDS_P1;SDS_P2;PMS_P1;PMS_P2;Temp;Humidity;BMP_temperature;BMP_pressure;BME280_temperature;BME280_humidity;BME280_pressure;Samples;Min_cycle;Max_cycle;Signal;HPM_P1;HPM_P2
2023/03/02 00:01:13;;;;;;;27.23;20.25;;;;;;;;;;10397892;27;20098;-60
2023/03/02 00:06:11;;;;;;;25.45;18.50;;;;;;;;;;10399680;27;20070;-61
2023/03/02 00:11:10;;;;;;;30.42;19.85;;;;;;;;;;10409723;27;20075;-60
2023/03/02 00:16:09;;;;;;;25.83;18.52;;;;;;;;;;10406619;27;20083;-60
2023/03/02 00:21:09;;;;;;;17.30;15.48;;;;;;;;;;10404691;27;20071;-61
2023/03/02 00:26:07;;;;;;;18.80;15.75;;;;;;;;;;10413275;27;20071;-61
2023/03/02 00:31:06;;;;;;;17.33;13.93;;;;;;;;;;10412659;27;20070;-61
2023/03/02 00:36:06;;;;;;;15.48;13.45;;;;;;;;;;10414065;27;20051;-62
2023/03/02 00:41:05;;;;;;;18.83;15.68;;;;;;;;;;10422712;27;20440;-62
2023/03/02 00:46:08;;;;;;;20.23;14.95;;;;;;;;;;10414743;27;20078;-61
2023/03/02 00:51:08;;;;;;;17.10;14.30;;;;;;;;;;10411402;27;20075;-61
2023/03/02 00:56:07;;;;;;;15.48;13.73;;;;;;;;;;10414205;27;20071;-61
2023/03/02 01:01:09;;;;;;;16.60;13.10;;;;;;;;;;10419086;28;20093;-61
2023/03/02 01:06:18;;;;;;;19.42;15.18;;;;;;;;;;10412629;28;20035;-61
2023/03/02 01:11:17;;;;;;;14.45;12.93;;;;;;;;;;10413423;28;20508;-60
2023/03/02 01:16:15;;;;;;;19.50;14.50;;;;;;;;;;10413113;28;20094;-61
2023/03/02 01:21:15;;;;;;;16.65;14.25;;;;;;;;;;10411341;28;20416;-61
2023/03/02 01:26:14;;;;;;;17.23;15.32;;;;;;;;;;10412282;28;20078;-60
2023/03/02 01:31:13;;;;;;;21.77;16.50;;;;;;;;;;10412792;28;20527;-61
2023/03/02 01:36:11;;;;;;;20.38;16.63;;;;;;;;;;10412727;28;20071;-60
2023/03/02 01:41:09;;;;;;;20.10;16.67;;;;;;;;;;10410692;28;20039;-60
2023/03/02 01:46:12;;;;;;;20.13;17.30;;;;;;;;;;10414186;27;20078;-61
2023/03/02 01:51:24;;;;;;;19.70;17.50;;;;;;;;;;10413146;27;20102;-60
2023/03/02 01:56:27;;;;;;;27.02;18.42;;;;;;;;;;10423776;27;20087;-60
2023/03/02 02:01:26;;;;;;;23.88;19.85;;;;;;;;;;10414865;27;20492;-60
2023/03/02 02:06:26;;;;;;;28.13;20.52;;;;;;;;;;10416796;27;20067;-61
2023/03/02 02:11:24;;;;;;;26.55;21.10;;;;;;;;;;10415285;27;20067;-60
2023/03/02 02:16:23;;;;;;;27.67;20.33;;;;;;;;;;10425023;27;20067;-61
2023/03/02 02:21:24;;;;;;;23.33;19.48;;;;;;;;;;10413845;27;20063;-60
2023/03/02 02:26:26;;;;;;;25.30;19.77;;;;;;;;;;10406673;27;20074;-60
2023/03/02 02:31:26;;;;;;;25.90;19.95;;;;;;;;;;10404529;27;20082;-60
2023/03/02 02:36:31;;;;;;;27.77;20.23;;;;;;;;;;10416359;27;20650;-61
2023/03/02 02:41:38;;;;;;;25.40;19.35;;;;;;;;;;10414510;27;20075;-61
2023/03/02 02:46:37;;;;;;;25.45;20.67;;;;;;;;;;10416283;27;20062;-61
2023/03/02 02:51:35;;;;;;;25.30;19.08;;;;;;;;;;10418072;27;20078;-61
2023/03/02 02:56:34;;;;;;;22.48;19.58;;;;;;;;;;10413310;27;20424;-61
2023/03/02 03:01:35;;;;;;;26.42;21.42;;;;;;;;;;10415069;27;20075;-61
2023/03/02 03:06:40;;;;;;;26.58;20.52;;;;;;;;;;10415521;27;20093;-61
2023/03/02 03:11:44;;;;;;;36.35;28.35;;;;;;;;;;10415230;27;20073;-60
2023/03/02 03:16:45;;;;;;;31.63;21.90;;;;;;;;;;10414219;27;20406;-61
2023/03/02 03:21:44;;;;;;;28.40;22.45;;;;;;;;;;10417544;27;20456;-62
2023/03/02 03:26:43;;;;;;;27.95;23.25;;;;;;;;;;10416921;27;20074;-60
2023/03/02 03:31:44;;;;;;;31.83;24.30;;;;;;;;;;10417461;27;20075;-61
2023/03/02 03:36:43;;;;;;;29.83;24.10;;;;;;;;;;10427382;27;20416;-61
2023/03/02 03:41:42;;;;;;;31.55;25.50;;;;;;;;;;10421645;27;20066;-61
2023/03/02 03:46:41;;;;;;;33.17;26.85;;;;;;;;;;10411149;27;20472;-61
2023/03/02 03:51:41;;;;;;;32.72;24.23;;;;;;;;;;10410773;27;20493;-61
2023/03/02 03:56:40;;;;;;;32.13;25.70;;;;;;;;;;10416165;27;20060;-61
2023/03/02 04:01:41;;;;;;;35.00;26.65;;;;;;;;;;10412156;27;20051;-61
2023/03/02 04:06:41;;;;;;;33.38;25.77;;;;;;;;;;10412648;27;20081;-61
2023/03/02 04:11:41;;;;;;;31.45;26.45;;;;;;;;;;10412888;27;20078;-61
2023/03/02 04:16:41;;;;;;;35.13;27.23;;;;;;;;;;10415311;27;20078;-62
2023/03/02 04:21:41;;;;;;;31.60;26.52;;;;;;;;;;10413351;27;20040;-61
2023/03/02 04:26:40;;;;;;;36.83;28.83;;;;;;;;;;10412860;27;20596;-61
2023/03/02 04:31:39;;;;;;;33.25;26.35;;;;;;;;;;10412149;27;20453;-61
2023/03/02 04:36:38;;;;;;;34.72;26.95;;;;;;;;;;10412870;27;20071;-61
2023/03/02 04:41:41;;;;;;;34.35;28.25;;;;;;;;;;10413455;27;20070;-60
2023/03/02 04:46:39;;;;;;;40.08;27.48;;;;;;;;;;10412633;27;20077;-61
2023/03/02 04:51:40;;;;;;;32.47;25.35;;;;;;;;;;10414350;27;20117;-59
2023/03/02 04:56:38;;;;;;;35.95;28.05;;;;;;;;;;10410095;27;20081;-59
2023/03/02 05:01:38;;;;;;;32.75;25.35;;;;;;;;;;10406299;28;20055;-60
2023/03/02 05:06:36;;;;;;;29.83;25.23;;;;;;;;;;10409217;28;20066;-59
2023/03/02 05:11:35;;;;;;;32.67;27.17;;;;;;;;;;10410402;28;20075;-60
2023/03/02 05:16:33;;;;;;;32.83;27.60;;;;;;;;;;10413783;28;20066;-59
2023/03/02 05:21:34;;;;;;;35.05;27.00;;;;;;;;;;10416266;27;20069;-59
2023/03/02 05:26:32;;;;;;;31.55;27.00;;;;;;;;;;10420184;27;20087;-59
2023/03/02 05:31:33;;;;;;;32.97;26.13;;;;;;;;;;10422876;27;20074;-59
2023/03/02 05:36:32;;;;;;;31.10;25.45;;;;;;;;;;10420887;27;20487;-59
2023/03/02 05:41:32;;;;;;;32.47;26.30;;;;;;;;;;10420529;27;20074;-59
2023/03/02 05:46:31;;;;;;;36.60;27.25;;;;;;;;;;10415527;27;20071;-58
2023/03/02 05:51:29;;;;;;;36.70;27.05;;;;;;;;;;10418867;27;20067;-59
2023/03/02 05:56:27;;;;;;;34.80;27.88;;;;;;;;;;10415873;27;20437;-58
2023/03/02 06:01:27;;;;;;;33.28;27.48;;;;;;;;;;10412123;27;20078;-58
2023/03/02 06:06:26;;;;;;;33.47;26.33;;;;;;;;;;10413810;27;20110;-58
2023/03/02 06:11:25;;;;;;;36.13;27.02;;;;;;;;;;10416930;27;20059;-58
2023/03/02 06:16:23;;;;;;;33.65;27.33;;;;;;;;;;10410489;27;20059;-59
2023/03/02 06:21:23;;;;;;;35.88;28.75;;;;;;;;;;10407541;27;20071;-60
2023/03/02 06:26:23;;;;;;;38.83;29.00;;;;;;;;;;10405287;27;20075;-59
2023/03/02 06:31:22;;;;;;;35.65;27.88;;;;;;;;;;10412020;27;20071;-59
2023/03/02 06:36:20;;;;;;;35.88;29.35;;;;;;;;;;10403168;27;20074;-59
2023/03/02 06:41:20;;;;;;;44.35;33.75;;;;;;;;;;10407361;27;20062;-59
2023/03/02 06:46:18;;;;;;;42.60;32.60;;;;;;;;;;10410431;27;20072;-59
2023/03/02 06:51:16;;;;;;;39.53;30.08;;;;;;;;;;10410344;27;20528;-60
2023/03/02 06:56:14;;;;;;;43.72;33.25;;;;;;;;;;10404210;27;20070;-59
2023/03/02 07:01:14;;;;;;;36.88;29.77;;;;;;;;;;10410437;27;20067;-59
2023/03/02 07:06:13;;;;;;;42.15;29.67;;;;;;;;;;10403083;27;20390;-59
2023/03/02 07:11:12;;;;;;;110.55;60.42;;;;;;;;;;10400949;27;21676;-60
2023/03/02 07:16:11;;;;;;;52.17;38.53;;;;;;;;;;10398547;27;20548;-59
2023/03/02 07:21:10;;;;;;;42.95;34.50;;;;;;;;;;10405497;27;20081;-58
2023/03/02 07:26:09;;;;;;;75.53;53.15;;;;;;;;;;10398372;27;20068;-57
2023/03/02 07:31:07;;;;;;;42.47;33.10;;;;;;;;;;10399835;27;20078;-58
2023/03/02 07:36:06;;;;;;;58.28;39.72;;;;;;;;;;10404958;27;20487;-59
2023/03/02 07:41:08;;;;;;;58.55;44.35;;;;;;;;;;10398046;27;20063;-57
2023/03/02 07:46:06;;;;;;;53.45;38.42;;;;;;;;;;10399537;27;20067;-56
2023/03/02 07:51:05;;;;;;;39.78;31.33;;;;;;;;;;10401177;27;20071;-59
2023/03/02 07:56:09;;;;;;;40.25;31.52;;;;;;;;;;10401978;27;20075;-59
2023/03/02 08:01:07;;;;;;;41.58;32.70;;;;;;;;;;10408412;27;20078;-59
2023/03/02 08:06:07;;;;;;;36.97;30.67;;;;;;;;;;10408515;27;20068;-59
2023/03/02 08:11:05;;;;;;;40.42;31.10;;;;;;;;;;10410580;27;20063;-59
2023/03/02 08:16:06;;;;;;;42.22;31.08;;;;;;;;;;10412360;27;20078;-58
2023/03/02 08:21:05;;;;;;;39.03;27.90;;;;;;;;;;10410265;27;20079;-58
2023/03/02 08:26:03;;;;;;;37.10;29.35;;;;;;;;;;10407413;27;20089;-59
2023/03/02 08:31:02;;;;;;;42.72;32.50;;;;;;;;;;10411749;27;20075;-59
2023/03/02 08:36:02;;;;;;;41.08;30.42;;;;;;;;;;10401015;27;20071;-58
2023/03/02 08:41:02;;;;;;;39.30;30.60;;;;;;;;;;10413045;27;20507;-58
2023/03/02 08:46:01;;;;;;;43.78;34.70;;;;;;;;;;10403907;27;20067;-59
2023/03/02 08:51:02;;;;;;;58.75;38.63;;;;;;;;;;10402109;27;20059;-58
2023/03/02 08:56:00;;;;;;;43.53;33.08;;;;;;;;;;10399814;27;20071;-59
2023/03/02 09:00:58;;;;;;;49.83;37.67;;;;;;;;;;10409004;27;20089;-56
2023/03/02 09:05:57;;;;;;;44.45;34.95;;;;;;;;;;10399969;28;20071;-59
2023/03/02 09:10:57;;;;;;;44.22;34.30;;;;;;;;;;10405121;27;20462;-58
2023/03/02 09:15:55;;;;;;;46.05;35.17;;;;;;;;;;10395952;27;20082;-59
2023/03/02 09:20:55;;;;;;;47.80;38.85;;;;;;;;;;10408349;28;20082;-58
2023/03/02 09:25:53;;;;;;;48.13;35.90;;;;;;;;;;10399257;27;20484;-59
2023/03/02 09:30:54;;;;;;;42.65;33.45;;;;;;;;;;10400017;28;20063;-60
2023/03/02 09:35:52;;;;;;;48.63;38.20;;;;;;;;;;10407243;28;20071;-59
2023/03/02 09:40:58;;;;;;;45.80;34.47;;;;;;;;;;10407929;28;20551;-58
2023/03/02 09:46:02;;;;;;;42.22;33.65;;;;;;;;;;10400590;28;20097;-59
2023/03/02 09:51:04;;;;;;;45.75;35.75;;;;;;;;;;10394186;28;20071;-59
2023/03/02 09:56:03;;;;;;;43.25;32.45;;;;;;;;;;10403782;28;20079;-58
2023/03/02 10:01:09;;;;;;;47.28;32.65;;;;;;;;;;10403862;28;20086;-60
2023/03/02 10:06:08;;;;;;;63.15;46.80;;;;;;;;;;10404278;28;20108;-59
2023/03/02 10:11:10;;;;;;;36.05;30.20;;;;;;;;;;10415238;27;20110;-58
2023/03/02 10:16:13;;;;;;;46.00;35.05;;;;;;;;;;10407880;27;20075;-59
2023/03/02 10:21:14;;;;;;;44.85;35.38;;;;;;;;;;10402674;27;20113;-60
2023/03/02 10:26:26;;;;;;;44.58;35.78;;;;;;;;;;10401297;27;20155;-60
2023/03/02 10:31:27;;;;;;;45.95;35.78;;;;;;;;;;10404924;27;20075;-60
2023/03/02 10:36:26;;;;;;;46.30;36.40;;;;;;;;;;10406732;27;20079;-59
2023/03/02 10:41:26;;;;;;;45.92;35.78;;;;;;;;;;10409206;27;20071;-54
2023/03/02 10:46:26;;;;;;;51.10;36.08;;;;;;;;;;10406236;27;20515;-59
2023/03/02 10:51:25;;;;;;;37.60;29.73;;;;;;;;;;10406189;27;20492;-59
2023/03/02 10:56:24;;;;;;;40.97;31.60;;;;;;;;;;10410114;27;20072;-58
2023/03/02 11:01:22;;;;;;;37.78;28.38;;;;;;;;;;10413378;27;20069;-56
2023/03/02 11:06:22;;;;;;;42.47;31.92;;;;;;;;;;10404077;27;20078;-59
2023/03/02 11:11:22;;;;;;;36.92;29.20;;;;;;;;;;10408174;27;20075;-60
2023/03/02 11:16:24;;;;;;;53.28;37.47;;;;;;;;;;10405803;27;20074;-59
2023/03/02 11:21:25;;;;;;;48.85;38.38;;;;;;;;;;10405897;27;20059;-58
2023/03/02 11:26:25;;;;;;;40.15;28.98;;;;;;;;;;10408797;27;20074;-59
2023/03/02 11:31:27;;;;;;;35.47;28.55;;;;;;;;;;10408402;27;20067;-59
2023/03/02 11:36:30;;;;;;;40.65;30.52;;;;;;;;;;10414097;27;20483;-60
2023/03/02 11:41:29;;;;;;;39.50;27.65;;;;;;;;;;10405636;27;20064;-58
2023/03/02 11:46:29;;;;;;;34.28;26.40;;;;;;;;;;10407607;27;20063;-60
2023/03/02 11:51:30;;;;;;;34.00;26.85;;;;;;;;;;10410843;27;20071;-58
2023/03/02 11:56:31;;;;;;;34.45;26.00;;;;;;;;;;10408333;27;20074;-58
2023/03/02 12:01:29;;;;;;;36.00;29.77;;;;;;;;;;10410311;27;20083;-59
2023/03/02 12:06:35;;;;;;;30.58;25.35;;;;;;;;;;10412164;27;20070;-58
2023/03/02 12:11:37;;;;;;;31.13;24.05;;;;;;;;;;10410289;27;20067;-57
2023/03/02 12:16:36;;;;;;;30.48;24.88;;;;;;;;;;10413869;27;20090;-59
2023/03/02 12:21:41;;;;;;;24.23;20.40;;;;;;;;;;10413048;27;20086;-59
2023/03/02 12:26:39;;;;;;;26.67;21.33;;;;;;;;;;10413484;27;20066;-58
2023/03/02 12:31:44;;;;;;;27.83;22.38;;;;;;;;;;10411960;27;20132;-58
2023/03/02 12:36:44;;;;;;;26.55;23.67;;;;;;;;;;10405870;27;20112;-59
2023/03/02 12:41:51;;;;;;;29.85;23.20;;;;;;;;;;10398862;27;20067;-59
2023/03/02 12:46:51;;;;;;;29.35;23.58;;;;;;;;;;10398962;27;20078;-57
2023/03/02 12:51:52;;;;;;;33.15;25.13;;;;;;;;;;10397547;27;20516;-56
2023/03/02 12:57:01;;;;;;;36.25;28.55;;;;;;;;;;10395411;28;20094;-56
2023/03/02 13:02:12;;;;;;;42.30;31.05;;;;;;;;;;10396652;27;20519;-58
2023/03/02 13:07:17;;;;;;;33.17;26.95;;;;;;;;;;10406776;27;20126;-58
2023/03/02 13:12:15;;;;;;;30.83;23.08;;;;;;;;;;10409915;28;20079;-56
2023/03/02 13:17:21;;;;;;;28.73;23.00;;;;;;;;;;10397970;28;20063;-58
2023/03/02 13:22:21;;;;;;;25.67;20.88;;;;;;;;;;10399152;27;20445;-56
2023/03/02 13:27:20;;;;;;;32.25;25.65;;;;;;;;;;10396506;28;20063;-58
2023/03/02 13:32:19;;;;;;;34.38;25.77;;;;;;;;;;10409300;28;20087;-59
2023/03/02 13:37:36;;;;;;;29.63;24.50;;;;;;;;;;10407562;28;20508;-60
2023/03/02 13:42:36;;;;;;;63.15;42.70;;;;;;;;;;10401932;27;20090;-58
2023/03/02 13:47:34;;;;;;;33.17;24.88;;;;;;;;;;10411769;27;20070;-57
2023/03/02 13:52:34;;;;;;;30.35;24.77;;;;;;;;;;10409620;27;20067;-58
2023/03/02 13:57:32;;;;;;;30.23;24.52;;;;;;;;;;10410102;27;20468;-58
2023/03/02 14:02:31;;;;;;;27.05;22.85;;;;;;;;;;10411267;27;20449;-58
2023/03/02 14:07:29;;;;;;;33.85;25.33;;;;;;;;;;10405869;27;20063;-58
2023/03/02 14:12:30;;;;;;;24.17;19.65;;;;;;;;;;10415548;27;20075;-57
2023/03/02 14:17:28;;;;;;;34.08;24.55;;;;;;;;;;10412244;27;20075;-58
2023/03/02 14:22:28;;;;;;;32.60;22.92;;;;;;;;;;10421606;27;20051;-59
2023/03/02 14:27:28;;;;;;;42.22;30.38;;;;;;;;;;10404780;27;20861;-52
2023/03/02 14:32:28;;;;;;;42.70;28.25;;;;;;;;;;10412231;27;20073;-58
2023/03/02 14:37:27;;;;;;;37.08;24.75;;;;;;;;;;10408368;27;20071;-52
2023/03/02 14:42:25;;;;;;;34.70;25.88;;;;;;;;;;10414062;27;20077;-59
2023/03/02 14:47:24;;;;;;;39.70;26.15;;;;;;;;;;10410650;27;20574;-58
2023/03/02 14:52:27;;;;;;;28.98;21.42;;;;;;;;;;10408803;27;20071;-59
2023/03/02 14:57:28;;;;;;;35.40;24.95;;;;;;;;;;10400612;27;20520;-58
2023/03/02 15:02:26;;;;;;;37.30;28.02;;;;;;;;;;10412007;27;20058;-58
2023/03/02 15:07:26;;;;;;;44.00;29.10;;;;;;;;;;10409666;27;20066;-58
2023/03/02 15:12:24;;;;;;;43.80;30.48;;;;;;;;;;10405520;27;20055;-59
2023/03/02 15:17:22;;;;;;;54.47;33.92;;;;;;;;;;10403439;27;20059;-59
2023/03/02 15:22:23;;;;;;;86.35;61.05;;;;;;;;;;10403232;27;20067;-59
2023/03/02 15:27:23;;;;;;;46.95;35.42;;;;;;;;;;10398065;28;20463;-59
2023/03/02 15:32:21;;;;;;;67.18;42.88;;;;;;;;;;10402445;27;20093;-58
2023/03/02 15:37:19;;;;;;;80.05;50.40;;;;;;;;;;10405671;27;20070;-58
2023/03/02 15:42:18;;;;;;;45.33;33.47;;;;;;;;;;10412336;27;20070;-57
2023/03/02 15:47:17;;;;;;;92.22;57.53;;;;;;;;;;10402374;27;20101;-58
2023/03/02 15:52:18;;;;;;;148.13;83.70;;;;;;;;;;10409906;27;20496;-58
2023/03/02 15:57:17;;;;;;;103.95;71.18;;;;;;;;;;10405353;27;20082;-59
2023/03/02 16:02:16;;;;;;;54.38;36.78;;;;;;;;;;10399464;27;20063;-59
2023/03/02 16:07:15;;;;;;;54.95;37.83;;;;;;;;;;10396455;27;20067;-59
2023/03/02 16:12:13;;;;;;;55.17;38.20;;;;;;;;;;10409560;27;20067;-59
2023/03/02 16:17:11;;;;;;;51.70;35.53;;;;;;;;;;10403319;27;20059;-59
2023/03/02 16:22:11;;;;;;;43.88;32.75;;;;;;;;;;10407423;27;20063;-59
2023/03/02 16:27:09;;;;;;;46.30;36.20;;;;;;;;;;10402708;27;20070;-58
2023/03/02 16:32:07;;;;;;;51.85;36.70;;;;;;;;;;10404184;27;20121;-59
2023/03/02 16:37:06;;;;;;;40.30;28.33;;;;;;;;;;10405943;27;20071;-57
2023/03/02 16:42:05;;;;;;;45.30;33.25;;;;;;;;;;10407643;27;20827;-58
2023/03/02 16:47:03;;;;;;;41.83;31.42;;;;;;;;;;10410978;27;20078;-58
2023/03/02 16:52:02;;;;;;;49.20;34.08;;;;;;;;;;10412472;27;20090;-56
2023/03/02 16:57:00;;;;;;;59.22;37.45;;;;;;;;;;10412477;27;20120;-58
2023/03/02 17:01:59;;;;;;;79.70;48.40;;;;;;;;;;10413624;27;20067;-58
2023/03/02 17:06:57;;;;;;;76.18;48.03;;;;;;;;;;10414227;28;20074;-59
2023/03/02 17:11:58;;;;;;;79.25;48.97;;;;;;;;;;10412261;28;20046;-58
2023/03/02 17:16:56;;;;;;;42.92;31.33;;;;;;;;;;10416036;27;20512;-59
2023/03/02 17:21:58;;;;;;;33.28;26.58;;;;;;;;;;10418131;27;20075;-58
2023/03/02 17:26:56;;;;;;;38.63;27.48;;;;;;;;;;10415900;27;20066;-58
2023/03/02 17:31:54;;;;;;;33.80;29.05;;;;;;;;;;10415771;27;20086;-59
2023/03/02 17:36:52;;;;;;;41.00;32.03;;;;;;;;;;10416322;27;20074;-59
2023/03/02 17:41:52;;;;;;;36.55;27.90;;;;;;;;;;10420669;27;20448;-57
2023/03/02 17:46:50;;;;;;;32.28;25.60;;;;;;;;;;10420166;27;20114;-57
2023/03/02 17:51:48;;;;;;;30.33;25.13;;;;;;;;;;10419935;27;20085;-57
2023/03/02 17:56:47;;;;;;;42.75;30.10;;;;;;;;;;10420162;27;20093;-57
2023/03/02 18:01:46;;;;;;;32.75;25.83;;;;;;;;;;10419177;27;20655;-58
2023/03/02 18:06:45;;;;;;;34.05;28.90;;;;;;;;;;10420262;27;20925;-59
2023/03/02 18:11:44;;;;;;;35.95;27.42;;;;;;;;;;10419843;27;20071;-59
2023/03/02 18:16:42;;;;;;;37.65;30.38;;;;;;;;;;10417636;27;20515;-58
2023/03/02 18:21:41;;;;;;;39.47;29.70;;;;;;;;;;10419110;27;20079;-58
2023/03/02 18:26:39;;;;;;;95.15;63.97;;;;;;;;;;10413399;27;20042;-56
2023/03/02 18:31:38;;;;;;;66.63;49.85;;;;;;;;;;10412688;27;20048;-58
2023/03/02 18:36:36;;;;;;;43.35;33.08;;;;;;;;;;10420171;27;20062;-59
2023/03/02 18:41:36;;;;;;;36.03;27.80;;;;;;;;;;10417583;27;20063;-58
2023/03/02 18:46:34;;;;;;;31.15;25.38;;;;;;;;;;10418378;27;20652;-59
2023/03/02 18:51:32;;;;;;;31.50;24.48;;;;;;;;;;10418038;27;20067;-58
2023/03/02 18:56:31;;;;;;;64.80;41.33;;;;;;;;;;10423729;27;20075;-57
2023/03/02 19:01:31;;;;;;;52.15;32.60;;;;;;;;;;10418266;27;20067;-57
2023/03/02 19:06:29;;;;;;;104.72;55.80;;;;;;;;;;10417017;27;20207;-58
2023/03/02 19:11:28;;;;;;;50.28;33.47;;;;;;;;;;10416287;27;20079;-58
2023/03/02 19:16:26;;;;;;;104.15;60.78;;;;;;;;;;10407012;27;20066;-56
2023/03/02 19:21:26;;;;;;;42.63;31.63;;;;;;;;;;10409632;27;20440;-56
2023/03/02 19:26:24;;;;;;;60.30;39.03;;;;;;;;;;10411530;27;20059;-58
2023/03/02 19:31:26;;;;;;;32.30;24.55;;;;;;;;;;10409893;27;20063;-58
2023/03/02 19:36:26;;;;;;;34.90;27.80;;;;;;;;;;10409872;27;20074;-59
2023/03/02 19:41:24;;;;;;;30.70;24.70;;;;;;;;;;10404350;27;20062;-56
2023/03/02 19:46:22;;;;;;;28.42;23.25;;;;;;;;;;10405484;27;20516;-58
2023/03/02 19:51:20;;;;;;;33.63;24.52;;;;;;;;;;10397425;28;20070;-59
2023/03/02 19:56:20;;;;;;;36.22;27.15;;;;;;;;;;10400558;27;20469;-59
2023/03/02 20:01:23;;;;;;;38.38;29.48;;;;;;;;;;10406447;27;20093;-58
2023/03/02 20:06:23;;;;;;;33.10;26.63;;;;;;;;;;10410522;27;20063;-58
2023/03/02 20:11:24;;;;;;;33.97;27.13;;;;;;;;;;10406106;27;20768;-59
2023/03/02 20:16:22;;;;;;;40.88;29.40;;;;;;;;;;10404093;27;20070;-59
2023/03/02 20:21:25;;;;;;;35.45;26.17;;;;;;;;;;10399361;27;20074;-59
2023/03/02 20:26:26;;;;;;;32.20;25.90;;;;;;;;;;10400530;27;20078;-59
2023/03/02 20:31:25;;;;;;;31.08;24.80;;;;;;;;;;10408486;27;20476;-59
2023/03/02 20:36:25;;;;;;;30.33;24.17;;;;;;;;;;10407705;27;20058;-57
2023/03/02 20:41:25;;;;;;;28.85;24.35;;;;;;;;;;10406597;27;20082;-57
2023/03/02 20:46:24;;;;;;;31.25;25.95;;;;;;;;;;10406113;27;20090;-58
2023/03/02 20:51:23;;;;;;;41.88;31.00;;;;;;;;;;10401409;27;20530;-55
2023/03/02 20:56:23;;;;;;;40.10;30.83;;;;;;;;;;10402079;27;20464;-59
2023/03/02 21:01:23;;;;;;;33.53;25.30;;;;;;;;;;10400620;27;20075;-58
2023/03/02 21:06:21;;;;;;;29.95;25.08;;;;;;;;;;10399091;28;20465;-57
2023/03/02 21:11:20;;;;;;;27.40;23.02;;;;;;;;;;10401509;27;20067;-58
2023/03/02 21:16:20;;;;;;;29.85;23.38;;;;;;;;;;10400994;28;20082;-58
2023/03/02 21:21:20;;;;;;;27.33;24.20;;;;;;;;;;10395159;28;20071;-59
2023/03/02 21:26:33;;;;;;;30.08;25.30;;;;;;;;;;10395581;28;20071;-57
2023/03/02 21:31:31;;;;;;;32.42;26.60;;;;;;;;;;10397613;28;20051;-59
2023/03/02 21:36:31;;;;;;;35.38;26.92;;;;;;;;;;10399875;27;20074;-58
2023/03/02 21:41:30;;;;;;;59.97;37.30;;;;;;;;;;10399002;28;20078;-58
2023/03/02 21:46:28;;;;;;;34.47;26.30;;;;;;;;;;10400558;28;20062;-58
2023/03/02 21:51:26;;;;;;;44.17;35.47;;;;;;;;;;10400129;28;20082;-59
2023/03/02 21:56:26;;;;;;;45.08;31.67;;;;;;;;;;10397441;28;20066;-59
2023/03/02 22:01:25;;;;;;;30.38;23.83;;;;;;;;;;10394602;28;20087;-58
2023/03/02 22:06:25;;;;;;;29.73;25.50;;;;;;;;;;10409952;27;20550;-57
2023/03/02 22:11:29;;;;;;;36.00;27.63;;;;;;;;;;10408488;27;20082;-58
2023/03/02 22:16:28;;;;;;;33.97;27.23;;;;;;;;;;10399180;27;20082;-55
2023/03/02 22:21:27;;;;;;;35.67;25.83;;;;;;;;;;10398873;27;20070;-59
2023/03/02 22:26:25;;;;;;;53.08;36.63;;;;;;;;;;10399196;27;20071;-58
2023/03/02 22:31:25;;;;;;;42.97;30.35;;;;;;;;;;10400406;27;20074;-58
2023/03/02 22:36:24;;;;;;;38.20;29.05;;;;;;;;;;10404360;27;20083;-58
2023/03/02 22:41:22;;;;;;;42.95;30.77;;;;;;;;;;10401654;27;20067;-58
2023/03/02 22:46:20;;;;;;;35.95;27.30;;;;;;;;;;10400655;27;20066;-59
2023/03/02 22:51:21;;;;;;;31.50;27.20;;;;;;;;;;10400759;27;20071;-58
2023/03/02 22:56:37;;;;;;;29.60;25.00;;;;;;;;;;10402393;27;20101;-57
2023/03/02 23:01:39;;;;;;;52.92;35.13;;;;;;;;;;10404287;27;20075;-58
2023/03/02 23:06:43;;;;;;;31.50;24.80;;;;;;;;;;10401217;27;20063;-59
2023/03/02 23:11:42;;;;;;;31.27;25.20;;;;;;;;;;10405539;27;20520;-56
2023/03/02 23:16:40;;;;;;;35.40;28.08;;;;;;;;;;10409634;27;20329;-58
2023/03/02 23:21:42;;;;;;;33.20;26.70;;;;;;;;;;10404080;27;20082;-58
2023/03/02 23:26:41;;;;;;;34.53;26.48;;;;;;;;;;10408752;27;20074;-59
2023/03/02 23:31:40;;;;;;;34.97;26.77;;;;;;;;;;10402305;27;20303;-57
2023/03/02 23:36:38;;;;;;;36.88;26.08;;;;;;;;;;10402875;27;20071;-59
2023/03/02 23:41:38;;;;;;;33.03;25.27;;;;;;;;;;10406090;27;20078;-55
2023/03/02 23:46:36;;;;;;;31.60;25.15;;;;;;;;;;10407924;27;20062;-58
2023/03/02 23:51:34;;;;;;;32.78;25.27;;;;;;;;;;10403258;27;20445;-60
2023/03/02 23:56:32;;;;;;;35.83;25.35;;;;;;;;;;10408216;27;20067;-57
